createdAt,value
2019-02-02T00:03:37.267Z,31.67
2019-02-02T00:06:16.413Z,31.00
2019-02-02T00:08:49.346Z,30.90
2019-02-02T00:11:25.003Z,30.92
2019-02-02T00:16:39.133Z,32.65
2019-02-02T00:21:48.245Z,32.38
2019-02-02T00:24:30.433Z,32.00
2019-02-02T00:27:06.178Z,24.23
2019-02-02T00:29:43.550Z,28.57
2019-02-02T00:32:18.386Z,31.65
2019-02-02T00:37:33.108Z,32.70
2019-02-02T00:40:08.319Z,29.90
2019-02-02T00:42:45.680Z,32.03
2019-02-02T00:45:21.843Z,25.93
2019-02-02T00:47:56.260Z,27.80
2019-02-02T00:53:12.254Z,30.65
2019-02-02T00:55:42.875Z,28.97
2019-02-02T00:58:30.253Z,25.77
2019-02-02T01:01:06.353Z,28.00
2019-02-02T01:03:35.399Z,31.10
2019-02-02T01:08:41.801Z,31.60
2019-02-02T01:11:10.871Z,25.87
2019-02-02T01:13:39.947Z,29.67
2019-02-02T01:16:21.298Z,30.20
2019-02-02T01:21:26.683Z,28.90
2019-02-02T01:24:09.467Z,27.73
2019-02-02T01:26:38.507Z,24.83
2019-02-02T01:29:15.778Z,29.00
2019-02-02T01:31:44.817Z,26.87
2019-02-02T01:36:53.795Z,34.38
2019-02-02T01:39:23.835Z,22.00
2019-02-02T01:41:53.310Z,28.90
2019-02-02T01:47:06.623Z,26.62
2019-02-02T01:49:36.608Z,23.07
2019-02-02T01:52:05.650Z,25.70
2019-02-02T01:54:38.311Z,26.33
2019-02-02T01:57:12.703Z,28.50
2019-02-02T01:59:42.651Z,31.33
2019-02-02T02:02:16.462Z,26.03
2019-02-02T02:04:45.523Z,23.47
2019-02-02T02:07:15.244Z,21.87
2019-02-02T02:09:44.343Z,29.90
2019-02-02T02:12:16.995Z,25.40
2019-02-02T02:14:46.035Z,30.27
2019-02-02T02:17:15.068Z,28.83
2019-02-02T02:19:44.435Z,26.23
2019-02-02T02:22:13.479Z,25.03
2019-02-02T02:24:45.491Z,32.00
2019-02-02T02:27:15.642Z,26.53
2019-02-02T02:29:44.715Z,29.37
2019-02-02T02:32:14.752Z,31.00
2019-02-02T02:34:43.824Z,27.70
2019-02-02T02:37:12.879Z,25.60
2019-02-02T02:39:42.407Z,24.97
2019-02-02T02:42:11.496Z,28.23
2019-02-02T02:44:41.460Z,30.15
2019-02-02T02:47:10.499Z,31.35
2019-02-02T02:49:39.573Z,30.90
2019-02-02T02:52:08.922Z,27.87
2019-02-02T02:54:38.036Z,29.33
2019-02-02T02:57:10.820Z,25.90
2019-02-02T02:59:41.432Z,29.10
2019-02-02T03:02:10.516Z,29.70
2019-02-02T03:04:39.573Z,30.30
2019-02-02T03:14:27.471Z,31.90
2019-02-02T03:17:00.400Z,29.03
2019-02-02T03:19:29.901Z,27.23
2019-02-02T03:21:59.914Z,29.90
2019-02-02T03:24:29.870Z,24.83
2019-02-02T03:27:00.898Z,27.30
2019-02-02T03:29:36.302Z,28.13
2019-02-02T03:32:27.504Z,34.03
2019-02-02T03:35:14.955Z,31.47
2019-02-02T03:37:44.433Z,31.20
2019-02-02T03:40:17.269Z,26.67
2019-02-02T03:42:46.332Z,22.87
2019-02-02T03:45:15.919Z,25.47
2019-02-02T03:47:44.989Z,33.15
2019-02-02T03:52:49.724Z,30.17
2019-02-02T03:55:49.676Z,35.30
2019-02-02T03:58:21.102Z,27.20
2019-02-02T04:00:50.179Z,32.92
2019-02-02T04:03:19.251Z,32.20
2019-02-02T04:05:48.308Z,29.90
2019-02-02T04:08:17.355Z,25.00
2019-02-02T04:10:47.829Z,29.05
2019-02-02T04:13:16.900Z,29.37
2019-02-02T04:15:45.963Z,27.63
2019-02-02T04:18:15.015Z,26.67
2019-02-02T04:23:50.576Z,31.37
2019-02-02T04:26:25.147Z,29.80
2019-02-02T04:28:54.229Z,27.53
2019-02-02T04:34:08.646Z,34.97
2019-02-02T04:36:50.391Z,35.40
2019-02-02T04:39:49.310Z,29.80
2019-02-02T04:42:37.428Z,30.10
2019-02-02T04:45:06.495Z,28.13
2019-02-02T04:47:35.565Z,28.90
2019-02-02T04:50:05.295Z,30.05
2019-02-02T04:57:51.599Z,35.80
2019-02-02T05:00:26.436Z,32.10
2019-02-02T05:02:56.999Z,30.00
2019-02-02T05:08:01.802Z,33.63
2019-02-02T05:13:11.110Z,37.60
2019-02-02T05:15:40.650Z,28.83
2019-02-02T05:18:11.622Z,34.03
2019-02-02T05:20:49.798Z,27.53
2019-02-02T05:23:18.855Z,28.93
2019-02-02T05:25:47.948Z,27.70
2019-02-02T05:28:17.538Z,27.03
2019-02-02T05:31:03.975Z,26.10
2019-02-02T05:36:12.885Z,36.53
2019-02-02T05:38:54.222Z,34.55
2019-02-02T05:41:23.687Z,32.87
2019-02-02T05:43:52.746Z,28.10
2019-02-02T05:46:21.801Z,34.80
2019-02-02T05:51:51.301Z,35.80
2019-02-02T05:54:23.810Z,30.10
2019-02-02T05:56:58.226Z,24.83
2019-02-02T05:59:27.267Z,26.70
2019-02-02T06:02:07.512Z,25.90
2019-02-02T06:04:37.612Z,24.17
2019-02-02T06:07:08.564Z,30.43
2019-02-02T06:09:37.679Z,28.50
2019-02-02T06:12:26.273Z,26.80
2019-02-02T06:15:04.061Z,27.90
2019-02-02T06:17:33.118Z,37.92
2019-02-02T06:20:06.917Z,36.57
2019-02-02T06:22:35.950Z,29.57
2019-02-02T06:27:41.534Z,48.17
2019-02-02T06:32:47.275Z,39.43
2019-02-02T06:35:26.783Z,40.35
2019-02-02T06:38:05.734Z,32.43
2019-02-02T06:40:35.197Z,30.57
2019-02-02T06:43:08.431Z,29.40
2019-02-02T06:45:37.480Z,26.70
2019-02-02T06:48:06.516Z,38.53
2019-02-02T06:50:35.568Z,28.90
2019-02-02T06:53:05.308Z,28.87
2019-02-02T06:55:34.416Z,29.20
2019-02-02T07:00:39.788Z,37.70
2019-02-02T07:03:09.233Z,26.07
2019-02-02T07:05:38.293Z,28.93
2019-02-02T07:08:20.236Z,29.40
2019-02-02T07:10:50.156Z,28.33
2019-02-02T07:13:22.002Z,24.27
2019-02-02T07:15:52.026Z,31.00
2019-02-02T07:18:21.050Z,28.93
2019-02-02T07:20:50.170Z,27.77
2019-02-02T07:23:19.233Z,30.07
2019-02-02T07:25:49.398Z,25.97
2019-02-02T07:30:54.417Z,35.90
2019-02-02T07:33:24.454Z,32.27
2019-02-02T07:35:54.097Z,30.93
2019-02-02T07:38:22.588Z,33.83
2019-02-02T07:40:51.645Z,30.57
2019-02-02T07:43:20.689Z,36.67
2019-02-02T07:45:50.213Z,33.67
2019-02-02T07:48:20.220Z,36.00
2019-02-02T07:50:49.282Z,32.20
2019-02-02T07:55:55.078Z,37.97
2019-02-02T07:58:29.007Z,30.37
2019-02-02T08:00:58.091Z,32.27
2019-02-02T08:03:27.148Z,28.77
2019-02-02T08:05:56.602Z,28.50
2019-02-02T08:08:29.449Z,28.27
2019-02-02T08:10:58.513Z,27.13
2019-02-02T08:13:27.879Z,26.80
2019-02-02T08:15:57.824Z,22.73
2019-02-02T08:18:28.508Z,29.40
2019-02-02T08:20:58.331Z,33.95
2019-02-02T08:26:06.085Z,36.78
2019-02-02T08:28:40.367Z,32.77
2019-02-02T08:31:11.193Z,25.63
2019-02-02T08:39:06.570Z,46.22
2019-02-02T08:41:50.911Z,35.90
2019-02-02T08:44:21.996Z,33.50
2019-02-02T08:46:53.025Z,29.60
2019-02-02T08:49:35.971Z,32.97
2019-02-02T08:52:26.201Z,37.08
2019-02-02T08:54:55.876Z,30.30
2019-02-02T08:57:26.945Z,29.40
2019-02-02T08:59:55.835Z,35.20
2019-02-02T09:02:25.919Z,29.70
2019-02-02T09:04:55.026Z,48.58
2019-02-02T09:07:24.007Z,34.13
2019-02-02T09:09:53.492Z,35.73
2019-02-02T09:12:25.790Z,29.37
2019-02-02T09:14:54.874Z,30.60
2019-02-02T09:17:24.511Z,28.23
2019-02-02T09:19:53.578Z,26.00
2019-02-02T09:22:23.074Z,28.63
2019-02-02T09:24:52.191Z,29.73
2019-02-02T09:27:21.207Z,29.73
2019-02-02T09:29:50.810Z,35.83
2019-02-02T09:32:20.918Z,36.13
2019-02-02T09:34:49.974Z,32.53
2019-02-02T09:37:19.008Z,31.27
2019-02-02T09:39:59.064Z,26.10
2019-02-02T09:42:29.109Z,21.93
2019-02-02T09:44:59.189Z,32.17
2019-02-02T09:47:28.220Z,35.35
2019-02-02T09:49:57.782Z,36.20
2019-02-02T09:52:27.839Z,28.97
2019-02-02T09:54:56.905Z,25.17
2019-02-02T09:57:27.975Z,21.43
2019-02-02T09:59:54.984Z,23.63
2019-02-02T10:02:26.995Z,22.63
2019-02-02T10:04:53.835Z,20.60
2019-02-02T10:07:22.876Z,19.10
2019-02-02T10:12:28.127Z,19.92
2019-02-02T10:14:58.797Z,20.58
2019-02-02T10:17:27.862Z,17.87
2019-02-02T10:19:56.931Z,18.15
2019-02-02T10:22:30.122Z,15.80
2019-02-02T10:24:59.192Z,14.60
2019-02-02T10:27:28.571Z,13.90
2019-02-02T10:32:36.558Z,14.73
2019-02-02T10:35:07.282Z,16.45
2019-02-02T10:37:36.374Z,15.90
2019-02-02T10:40:05.418Z,12.17
2019-02-02T10:42:35.407Z,11.60
2019-02-02T10:45:05.742Z,10.07
2019-02-02T10:47:35.268Z,13.43
2019-02-02T10:52:40.025Z,14.00
2019-02-02T10:55:18.687Z,11.60
2019-02-02T10:57:51.538Z,11.07
2019-02-02T11:00:24.046Z,13.30
2019-02-02T11:02:54.116Z,11.70
2019-02-02T11:05:24.211Z,10.23
2019-02-02T11:07:54.822Z,9.77
2019-02-02T11:10:24.708Z,7.37
2019-02-02T11:12:55.151Z,7.17
2019-02-02T11:15:24.174Z,7.20
2019-02-02T11:17:55.013Z,7.53
2019-02-02T11:20:29.359Z,7.03
2019-02-02T11:22:58.554Z,7.87
2019-02-02T11:25:28.694Z,6.93
2019-02-02T11:27:57.759Z,7.13
2019-02-02T11:30:28.037Z,6.13
2019-02-02T11:32:58.601Z,7.47
2019-02-02T11:38:03.489Z,7.10
2019-02-02T11:40:36.735Z,7.45
2019-02-02T11:43:05.815Z,6.97
2019-02-02T11:45:34.898Z,5.67
2019-02-02T11:48:03.964Z,5.93
2019-02-02T11:53:13.032Z,7.05
2019-02-02T11:55:42.127Z,5.80
2019-02-02T11:58:11.139Z,6.53
2019-02-02T12:03:15.890Z,6.95
2019-02-02T12:05:45.537Z,6.57
2019-02-02T12:08:21.062Z,5.90
2019-02-02T12:10:50.362Z,6.72
2019-02-02T12:13:19.363Z,4.97
2019-02-02T12:15:48.498Z,5.90
2019-02-02T12:18:18.621Z,6.13
2019-02-02T12:20:47.678Z,5.33
2019-02-02T12:23:16.715Z,5.37
2019-02-02T12:25:48.601Z,5.50
2019-02-02T12:28:17.755Z,5.33
2019-02-02T12:30:46.871Z,12.17
2019-02-02T12:33:15.874Z,24.40
2019-02-02T12:35:45.848Z,14.10
2019-02-02T12:38:15.679Z,6.50
2019-02-02T12:40:44.776Z,5.13
2019-02-02T12:43:13.892Z,6.50
2019-02-02T12:45:46.735Z,5.90
2019-02-02T12:48:19.431Z,7.80
2019-02-02T12:50:48.472Z,5.77
2019-02-02T12:53:17.482Z,9.30
2019-02-02T12:55:46.704Z,10.37
2019-02-02T12:58:17.146Z,7.63
2019-02-02T13:00:46.290Z,10.00
2019-02-02T13:03:17.300Z,7.27
2019-02-02T13:05:46.335Z,4.53
2019-02-02T13:10:51.751Z,6.50
2019-02-02T13:13:21.676Z,9.10
2019-02-02T13:15:50.722Z,6.40
2019-02-02T13:18:20.932Z,7.50
2019-02-02T13:20:49.987Z,6.07
2019-02-02T13:23:19.018Z,7.00
2019-02-02T13:25:50.056Z,7.50
2019-02-02T13:28:19.274Z,6.30
2019-02-02T13:30:49.727Z,5.90
2019-02-02T13:33:37.027Z,6.20
2019-02-02T13:38:45.856Z,5.60
2019-02-02T13:41:15.021Z,5.57
2019-02-02T13:43:44.550Z,4.77
2019-02-02T13:46:13.633Z,6.90
2019-02-02T13:48:42.867Z,5.30
2019-02-02T13:51:11.910Z,6.00
2019-02-02T13:53:40.931Z,5.60
2019-02-02T13:56:10.596Z,5.70
2019-02-02T13:58:40.572Z,5.47
2019-02-02T14:01:09.631Z,5.60
2019-02-02T14:03:41.065Z,7.40
2019-02-02T14:06:10.114Z,6.20
2019-02-02T14:08:39.175Z,6.60
2019-02-02T14:11:08.223Z,5.97
2019-02-02T14:13:37.262Z,5.43
2019-02-02T14:18:46.530Z,5.22
2019-02-02T14:21:18.808Z,5.23
2019-02-02T14:23:47.893Z,6.53
2019-02-02T14:26:17.601Z,5.40
2019-02-02T14:31:22.856Z,4.90
2019-02-02T14:33:52.335Z,5.60
2019-02-02T14:36:25.112Z,10.27
2019-02-02T14:38:55.313Z,11.87
2019-02-02T14:41:24.516Z,7.93
2019-02-02T14:43:55.728Z,5.60
2019-02-02T14:46:22.598Z,5.20
2019-02-02T14:52:41.887Z,6.80
2019-02-02T14:55:17.554Z,5.37
2019-02-02T14:57:51.920Z,5.30
2019-02-02T15:00:26.240Z,5.43
2019-02-02T15:02:59.464Z,6.77
2019-02-02T15:08:11.466Z,5.97
2019-02-02T15:10:46.557Z,6.20
2019-02-02T15:13:17.791Z,6.60
2019-02-02T15:18:23.960Z,6.53
2019-02-02T15:20:52.990Z,6.23
2019-02-02T15:25:58.642Z,7.20
2019-02-02T15:28:27.695Z,7.90
2019-02-02T15:30:56.759Z,9.00
2019-02-02T15:33:37.555Z,9.83
2019-02-02T15:35:57.876Z,10.70
2019-02-02T15:38:27.160Z,9.97
2019-02-02T15:40:59.235Z,12.30
2019-02-02T15:43:40.380Z,13.75
2019-02-02T15:46:10.894Z,13.30
2019-02-02T15:53:53.695Z,11.60
2019-02-02T15:56:28.226Z,9.43
2019-02-02T15:58:58.328Z,8.70
2019-02-02T16:01:32.007Z,7.90
2019-02-02T16:06:36.974Z,9.05
2019-02-02T16:09:06.064Z,10.23
2019-02-02T16:11:37.655Z,11.60
2019-02-02T16:14:07.058Z,10.30
2019-02-02T16:16:36.119Z,12.13
2019-02-02T16:19:05.913Z,11.88
2019-02-02T16:21:47.656Z,10.80
2019-02-02T16:24:16.786Z,10.33
2019-02-02T16:26:48.586Z,12.23
2019-02-02T16:29:15.009Z,10.33
2019-02-02T16:31:45.032Z,11.20
2019-02-02T16:34:14.118Z,9.70
2019-02-02T16:36:50.192Z,10.07
2019-02-02T16:39:22.804Z,10.23
2019-02-02T16:41:51.866Z,9.83
2019-02-02T16:44:21.494Z,14.90
2019-02-02T16:46:54.368Z,23.67
2019-02-02T16:49:23.447Z,23.10
2019-02-02T16:51:52.825Z,26.57
2019-02-02T16:54:21.863Z,26.87
2019-02-02T16:56:55.910Z,30.30
2019-02-02T16:59:25.057Z,24.83
2019-02-02T17:01:54.233Z,23.30
2019-02-02T17:04:24.406Z,24.30
2019-02-02T17:07:00.881Z,23.10
2019-02-02T17:09:29.949Z,27.90
2019-02-02T17:11:59.034Z,27.47
2019-02-02T17:14:28.170Z,34.03
2019-02-02T17:17:11.792Z,32.73
2019-02-02T17:19:54.866Z,27.13
2019-02-02T17:22:23.619Z,35.97
2019-02-02T17:24:56.403Z,34.70
2019-02-02T17:27:25.469Z,29.53
2019-02-02T17:29:56.205Z,34.90
2019-02-02T17:32:25.952Z,39.87
2019-02-02T17:34:57.041Z,38.00
2019-02-02T17:37:26.546Z,33.93
2019-02-02T17:40:03.260Z,34.40
2019-02-02T17:42:34.337Z,29.23
2019-02-02T17:45:03.635Z,35.00
2019-02-02T17:47:49.034Z,33.85
2019-02-02T17:50:21.042Z,27.57
2019-02-02T17:53:03.125Z,25.40
2019-02-02T17:58:16.093Z,29.47
2019-02-02T18:00:50.142Z,26.07
2019-02-02T18:03:22.115Z,26.13
2019-02-02T18:05:51.327Z,23.37
2019-02-02T18:08:20.376Z,23.50
2019-02-02T18:10:57.335Z,29.42
2019-02-02T18:13:26.378Z,33.50
2019-02-02T18:18:31.732Z,45.28
2019-02-02T18:21:01.263Z,42.77
2019-02-02T18:23:30.454Z,37.70
2019-02-02T18:28:39.437Z,31.87
2019-02-02T18:31:08.681Z,26.13
2019-02-02T18:33:37.730Z,35.33
2019-02-02T18:36:06.775Z,27.80
2019-02-02T18:39:00.309Z,43.87
2019-02-02T18:41:30.389Z,33.20
2019-02-02T18:44:03.613Z,35.77
2019-02-02T18:46:34.076Z,51.15
2019-02-02T18:49:03.103Z,55.60
2019-02-02T18:51:32.310Z,54.40
2019-02-02T18:54:03.848Z,41.90
2019-02-02T18:59:08.598Z,53.20
2019-02-02T19:01:38.292Z,47.37
2019-02-02T19:04:08.502Z,36.57
2019-02-02T19:06:38.524Z,38.27
2019-02-02T19:09:08.546Z,40.80
2019-02-02T19:11:37.620Z,35.20
2019-02-02T19:14:16.050Z,35.70
2019-02-02T19:16:45.090Z,40.63
2019-02-02T19:19:15.084Z,37.17
2019-02-02T19:21:44.139Z,30.83
2019-02-02T19:24:13.373Z,34.50
2019-02-02T19:26:42.854Z,30.37
2019-02-02T19:29:16.386Z,31.33
2019-02-02T19:31:45.742Z,38.33
2019-02-02T19:34:18.404Z,34.77
2019-02-02T19:36:45.782Z,33.77
2019-02-02T19:39:18.559Z,35.23
2019-02-02T19:41:47.643Z,36.23
2019-02-02T19:44:17.823Z,43.57
2019-02-02T19:46:47.572Z,33.27
2019-02-02T19:49:16.684Z,40.73
2019-02-02T19:51:46.023Z,40.07
2019-02-02T19:54:20.358Z,42.13
2019-02-02T19:56:49.408Z,41.97
2019-02-02T19:59:29.283Z,60.60
2019-02-02T20:01:58.886Z,52.13
2019-02-02T20:04:27.921Z,53.80
2019-02-02T20:07:01.695Z,64.80
2019-02-02T20:12:08.945Z,213.30
2019-02-02T20:14:36.044Z,140.67
2019-02-02T20:17:15.769Z,129.13
2019-02-02T20:19:45.252Z,105.97
2019-02-02T20:22:14.839Z,65.53
2019-02-02T20:24:43.881Z,65.90
2019-02-02T20:27:13.835Z,75.43
2019-02-02T20:29:42.891Z,66.70
2019-02-02T20:32:13.451Z,52.90
2019-02-02T20:34:42.539Z,46.50
2019-02-02T20:37:12.030Z,61.80
2019-02-02T20:39:41.756Z,68.23
2019-02-02T20:42:10.789Z,58.53
2019-02-02T20:44:39.912Z,49.90
2019-02-02T20:47:08.961Z,69.80
2019-02-02T20:49:38.084Z,51.10
2019-02-02T20:52:08.731Z,52.50
2019-02-02T20:54:50.419Z,61.05
2019-02-02T20:59:54.674Z,77.53
2019-02-02T21:05:01.214Z,117.10
2019-02-02T21:07:32.336Z,104.00
2019-02-02T21:10:01.604Z,97.20
2019-02-02T21:12:30.656Z,69.73
2019-02-02T21:15:11.731Z,99.07
2019-02-02T21:17:46.626Z,137.23
2019-02-02T21:20:26.042Z,131.02
2019-02-02T21:22:55.114Z,140.67
2019-02-02T21:25:25.117Z,142.97
2019-02-02T21:27:58.119Z,95.30
2019-02-02T21:30:39.589Z,75.20
2019-02-02T21:33:09.941Z,68.70
2019-02-02T21:35:40.851Z,67.60
2019-02-02T21:38:17.796Z,59.87
2019-02-02T21:40:47.364Z,70.00
2019-02-02T21:45:57.941Z,111.03
2019-02-02T21:48:28.154Z,84.93
2019-02-02T21:50:58.524Z,93.13
2019-02-02T21:53:27.768Z,124.22
2019-02-02T21:55:57.549Z,126.13
2019-02-02T21:58:26.794Z,82.20
2019-02-02T22:00:56.642Z,84.73
2019-02-02T22:03:28.999Z,79.50
2019-02-02T22:08:33.753Z,113.57
2019-02-02T22:11:07.814Z,99.43
2019-02-02T22:18:51.771Z,138.48
2019-02-02T22:21:28.713Z,93.03
2019-02-02T22:24:02.277Z,86.13
2019-02-02T22:26:39.408Z,87.13
2019-02-02T22:29:11.100Z,111.93
2019-02-02T22:34:22.083Z,127.30
2019-02-02T22:39:26.805Z,156.12
2019-02-02T22:42:05.521Z,241.12
2019-02-02T22:47:28.440Z,166.02
2019-02-02T22:50:01.269Z,115.70
2019-02-02T22:52:31.177Z,456.93
2019-02-02T22:57:39.098Z,252.10
2019-02-02T23:00:29.865Z,228.17
2019-02-02T23:10:56.019Z,479.50
2019-02-02T23:16:24.203Z,245.85
2019-02-02T23:18:53.747Z,193.00
2019-02-02T23:21:37.154Z,179.57
2019-02-02T23:26:45.790Z,98.53
2019-02-02T23:29:24.163Z,178.63
2019-02-02T23:32:04.713Z,212.40
2019-02-02T23:34:46.881Z,149.83
2019-02-02T23:39:54.607Z,293.70
2019-02-02T23:42:30.176Z,142.47
2019-02-02T23:45:00.851Z,237.07
2019-02-02T23:47:46.531Z,135.93
2019-02-02T23:50:18.387Z,86.10
2019-02-02T23:52:48.961Z,81.57
2019-02-02T23:57:58.017Z,164.73
